ROMMA est une association bénévole à but non lucratif. Votre soutien est indispensable : ADHERER à ROMMA ou FAIRE un DON

Granges-lès-Beaumont - (26, Drôme)

Drôme des Collines (155 m)   Longitude: 04°58'E   Latitude: 45°03'N Station partenaire n°123
 

Détail journalier du     <<     >>

Température Precipitation Humidité Pression Vent Dir Rafale Dir. rafale Ensol.
Heure (°C) (mm) (%) (hPa) (km/h) (km/h) (min)
01:00 9.506310178N15NNO0
02:00 8.1066101711NNO16NO0
03:00 7.1069101610NNO15NNO0
04:00 6.8069101611NNO18NNO0
05:00 6.1071101510NNO16NNO0
06:00 5.707210159NNO16NNO0
07:00 5.8072101512NNO21N0
08:00 7.8063101517NNO32N0
09:00 9.5060101519NNO37NNE0
10:00 11.7054101619NNO35NNO30
11:00 13.6051101519N35N60
12:00 15.3045101519N34NNE60
13:00 16.2043101519N35N60
14:00 16.8043101419NNO35NNE40
15:00 18.2043101419NNE45NE40
16:00 17.8042101419NNO44NNO20
17:00 17.5045101417NNO34NO10
18:00 16.3046101418NNO35ONO0
19:00 15.8049101417NNO32NO0
20:00 14.7051101415NNO31N0
21:00 13.8053101412N31N0
22:00 12.305810159N19N0
23:00 10.706410159N16N0
minuit 9.8067101510NNO16NNO0

Graphique du 15-05-2019

 

Serveur OMMA